createdAt,value
2022-09-29T00:00:07.978Z,99085.39
2022-09-29T00:05:30.715Z,99085.91
2022-09-29T00:10:33.471Z,99088.41
2022-09-29T00:15:36.181Z,99084.90
2022-09-29T00:20:39.142Z,99076.64
2022-09-29T00:25:42.448Z,99078.27
2022-09-29T00:30:45.253Z,99081.56
2022-09-29T00:35:59.049Z,99071.97
2022-09-29T00:41:02.021Z,99076.85
2022-09-29T00:46:07.343Z,99079.53
2022-09-29T00:51:10.280Z,99075.09
2022-09-29T00:56:14.478Z,99084.27
2022-09-29T01:01:17.222Z,99077.75
2022-09-29T01:06:22.513Z,99077.31
2022-09-29T01:11:25.329Z,99088.29
2022-09-29T01:16:28.172Z,99085.55
2022-09-29T01:21:59.606Z,99097.63
2022-09-29T01:27:32.986Z,99099.20
2022-09-29T01:33:07.008Z,99110.05
2022-09-29T01:38:34.189Z,99115.35
2022-09-29T01:44:04.592Z,99118.36
2022-09-29T01:49:07.504Z,99124.36
2022-09-29T01:54:15.710Z,99118.59
2022-09-29T01:59:44.160Z,99118.31
2022-09-29T02:04:51.304Z,99125.23
2022-09-29T02:10:01.991Z,99126.90
2022-09-29T02:15:07.665Z,99129.40
2022-09-29T02:20:12.076Z,99129.71
2022-09-29T02:25:16.785Z,99139.05
2022-09-29T02:30:19.579Z,99148.80
2022-09-29T02:35:22.482Z,99148.27
2022-09-29T02:40:37.636Z,99147.48
2022-09-29T02:46:07.255Z,99139.50
2022-09-29T02:51:36.916Z,99143.23
2022-09-29T02:57:12.276Z,99149.94
2022-09-29T03:02:16.407Z,99167.10
2022-09-29T03:07:20.547Z,99157.02
2022-09-29T03:12:24.146Z,99165.55
2022-09-29T03:17:26.928Z,99163.56
2022-09-29T03:22:29.734Z,99182.95
2022-09-29T03:27:33.483Z,99200.34
2022-09-29T03:32:36.238Z,99207.48
2022-09-29T03:37:38.958Z,99205.73
2022-09-29T03:42:41.682Z,99202.18
2022-09-29T03:47:44.498Z,99206.92
2022-09-29T03:52:47.252Z,99216.01
2022-09-29T03:57:50.043Z,99222.48
2022-09-29T04:02:55.078Z,99227.94
2022-09-29T04:07:57.966Z,99228.13
2022-09-29T04:13:00.826Z,99220.78
2022-09-29T04:18:03.707Z,99213.21
2022-09-29T04:23:06.716Z,99219.75
2022-09-29T04:28:09.513Z,99217.95
2022-09-29T04:33:12.281Z,99223.55
2022-09-29T04:38:15.024Z,99224.76
2022-09-29T04:43:17.817Z,99220.45
2022-09-29T04:48:20.663Z,99228.52
2022-09-29T04:53:23.368Z,99228.27
2022-09-29T04:58:26.183Z,99233.36
2022-09-29T05:03:29.301Z,99236.41
2022-09-29T05:08:32.352Z,99236.06
2022-09-29T05:13:35.837Z,99243.80
2022-09-29T05:18:39.480Z,99251.65
2022-09-29T05:23:42.879Z,99259.19
2022-09-29T05:28:47.176Z,99263.73
2022-09-29T05:33:50.111Z,99269.20
2022-09-29T05:38:53.594Z,99272.32
2022-09-29T05:43:56.553Z,99280.65
2022-09-29T05:48:59.330Z,99288.05
2022-09-29T05:54:02.502Z,99293.78
2022-09-29T05:59:05.267Z,99287.87
2022-09-29T06:04:08.119Z,99287.29
2022-09-29T06:09:10.960Z,99293.45
2022-09-29T06:14:13.727Z,99295.04
2022-09-29T06:19:16.751Z,99299.16
2022-09-29T06:24:19.530Z,99298.21
2022-09-29T06:29:22.345Z,99304.59
2022-09-29T06:34:25.206Z,99314.29
2022-09-29T06:39:28.098Z,99319.46
2022-09-29T06:44:31.267Z,99328.71
2022-09-29T06:49:34.596Z,99333.77
2022-09-29T06:54:37.333Z,99343.45
2022-09-29T06:59:40.514Z,99346.86
2022-09-29T07:04:43.224Z,99347.98
2022-09-29T07:09:46.139Z,99355.36
2022-09-29T07:14:48.860Z,99359.98
2022-09-29T07:19:52.541Z,99370.57
2022-09-29T07:24:55.486Z,99377.84
2022-09-29T07:30:03.507Z,99379.52
2022-09-29T07:35:07.258Z,99382.26
2022-09-29T07:40:10.247Z,99387.36
2022-09-29T07:45:13.158Z,99392.11
2022-09-29T07:50:15.922Z,99398.98
2022-09-29T07:55:19.694Z,99405.27
2022-09-29T08:00:22.814Z,99417.52
2022-09-29T08:05:27.591Z,99422.31
2022-09-29T08:10:40.652Z,99418.88
2022-09-29T08:15:56.927Z,99412.13
2022-09-29T08:21:02.915Z,99416.91
2022-09-29T08:26:12.310Z,99426.74
2022-09-29T08:31:21.462Z,99436.89
2022-09-29T08:36:24.551Z,99432.57
2022-09-29T08:41:45.950Z,99438.17
2022-09-29T08:47:04.117Z,99438.06
2022-09-29T08:52:45.137Z,99443.51
2022-09-29T08:57:59.588Z,99458.20
2022-09-29T09:03:12.472Z,99466.99
2022-09-29T09:08:34.445Z,99468.96
2022-09-29T09:13:51.136Z,99470.54
2022-09-29T09:19:30.667Z,99476.83
2022-09-29T09:25:27.862Z,99470.73
2022-09-29T09:30:38.294Z,99476.83
2022-09-29T09:35:56.685Z,99480.14
2022-09-29T09:41:04.085Z,99495.38
2022-09-29T09:46:35.760Z,99503.94
2022-09-29T09:57:26.145Z,99497.32
2022-09-29T10:02:28.854Z,99507.80
2022-09-29T10:07:31.587Z,99512.90
2022-09-29T10:12:34.674Z,99516.75
2022-09-29T10:17:42.392Z,99519.50
2022-09-29T10:22:48.466Z,99521.64
2022-09-29T10:27:54.983Z,99522.62
2022-09-29T10:33:02.573Z,99529.15
2022-09-29T10:38:08.143Z,99533.79
2022-09-29T10:43:24.989Z,99543.80
2022-09-29T10:48:28.311Z,99542.70
2022-09-29T10:53:35.051Z,99542.64
2022-09-29T10:58:57.757Z,99548.30
2022-09-29T11:04:07.454Z,99555.41
2022-09-29T11:09:13.376Z,99559.55
2022-09-29T11:14:26.378Z,99560.72
2022-09-29T11:19:30.053Z,99564.80
2022-09-29T11:24:47.965Z,99571.92
2022-09-29T11:30:04.104Z,99571.63
2022-09-29T11:35:31.687Z,99574.96
2022-09-29T11:40:51.210Z,99569.05
2022-09-29T11:46:31.490Z,99572.58
2022-09-29T11:52:35.676Z,99577.45
2022-09-29T11:58:23.191Z,99581.48
2022-09-29T12:04:07.838Z,99579.23
2022-09-29T12:09:40.538Z,99577.52
2022-09-29T12:20:34.564Z,99580.92
2022-09-29T12:25:40.987Z,99589.70
2022-09-29T12:30:51.857Z,99590.81
2022-09-29T12:36:27.755Z,99597.18
2022-09-29T12:41:33.368Z,99605.36
2022-09-29T12:46:47.472Z,99611.33
2022-09-29T12:51:51.712Z,99613.98
2022-09-29T12:57:35.289Z,99620.43
2022-09-29T13:03:05.919Z,99620.11
2022-09-29T13:09:03.009Z,99618.53
2022-09-29T13:14:20.986Z,99620.77
2022-09-29T13:19:58.728Z,99623.11
2022-09-29T13:25:20.437Z,99622.66
2022-09-29T13:30:28.770Z,99620.57
2022-09-29T13:35:31.545Z,99617.55
2022-09-29T13:40:34.292Z,99622.63
2022-09-29T13:45:41.342Z,99623.11
2022-09-29T13:50:53.061Z,99626.67
2022-09-29T13:56:02.629Z,99632.45
2022-09-29T14:01:06.865Z,99643.42
2022-09-29T14:06:40.204Z,99652.55
2022-09-29T14:11:52.894Z,99658.34
2022-09-29T14:17:18.262Z,99657.63
2022-09-29T14:22:30.234Z,99660.34
2022-09-29T14:27:40.210Z,99657.48
2022-09-29T14:32:46.446Z,99658.23
2022-09-29T14:38:01.141Z,99662.80
2022-09-29T14:43:13.802Z,99660.11
2022-09-29T14:48:46.478Z,99666.88
2022-09-29T14:54:10.694Z,99668.23
2022-09-29T14:59:27.206Z,99673.44
2022-09-29T15:04:30.222Z,99685.83
2022-09-29T15:09:36.285Z,99695.66
2022-09-29T15:14:41.763Z,99689.13
2022-09-29T15:20:00.362Z,99699.02
2022-09-29T15:25:10.632Z,99699.87
2022-09-29T15:30:16.912Z,99706.34
2022-09-29T15:35:24.925Z,99712.42
2022-09-29T15:40:28.063Z,99719.55
2022-09-29T15:45:31.711Z,99725.92
2022-09-29T15:50:42.181Z,99726.85
2022-09-29T15:55:45.131Z,99732.73
2022-09-29T16:00:48.484Z,99733.94
2022-09-29T16:06:12.017Z,99746.75
2022-09-29T16:11:36.092Z,99746.38
2022-09-29T16:16:47.761Z,99748.17
2022-09-29T16:21:55.143Z,99755.05
2022-09-29T16:26:58.437Z,99768.08
2022-09-29T16:32:35.272Z,99774.09
2022-09-29T16:37:40.330Z,99776.66
2022-09-29T16:42:46.096Z,99779.89
2022-09-29T16:47:51.234Z,99785.77
2022-09-29T16:52:54.254Z,99790.38
2022-09-29T16:58:12.539Z,99793.06
2022-09-29T17:03:15.388Z,99795.26
2022-09-29T17:08:22.355Z,99798.73
2022-09-29T17:13:25.193Z,99809.35
2022-09-29T17:18:29.377Z,99816.60
2022-09-29T17:23:33.199Z,99816.13
2022-09-29T17:28:36.698Z,99818.03
2022-09-29T17:33:41.513Z,99818.08
2022-09-29T17:38:46.499Z,99813.58
2022-09-29T17:43:49.215Z,99811.92
2022-09-29T17:48:51.935Z,99811.79
2022-09-29T17:53:54.776Z,99817.11
2022-09-29T17:58:57.603Z,99827.94
2022-09-29T18:04:01.967Z,99837.02
2022-09-29T18:09:16.331Z,99838.09
2022-09-29T18:14:19.135Z,99838.98
2022-09-29T18:19:21.923Z,99836.36
2022-09-29T18:24:24.761Z,99839.77
2022-09-29T18:29:27.652Z,99847.40
2022-09-29T18:34:33.660Z,99855.96
2022-09-29T18:39:36.530Z,99859.39
2022-09-29T18:44:39.547Z,99867.27
2022-09-29T18:49:43.229Z,99868.73
2022-09-29T18:54:46.273Z,99868.91
2022-09-29T18:59:51.958Z,99877.41
2022-09-29T19:04:55.379Z,99889.41
2022-09-29T19:09:58.163Z,99900.14
2022-09-29T19:15:01.519Z,99905.67
2022-09-29T19:20:04.972Z,99901.10
2022-09-29T19:25:12.982Z,99905.50
2022-09-29T19:30:21.174Z,99907.79
2022-09-29T19:35:24.370Z,99913.20
2022-09-29T19:40:31.224Z,99909.21
2022-09-29T19:45:37.610Z,99910.89
2022-09-29T19:50:59.399Z,99913.16
2022-09-29T19:56:08.249Z,99918.19
2022-09-29T20:01:11.823Z,99921.96
2022-09-29T20:06:15.088Z,99923.23
2022-09-29T20:11:17.937Z,99924.61
2022-09-29T20:16:20.979Z,99932.67
2022-09-29T20:21:24.697Z,99930.80
2022-09-29T20:26:28.403Z,99917.31
2022-09-29T20:31:31.837Z,99922.10
2022-09-29T20:36:35.029Z,99926.13
2022-09-29T20:41:37.926Z,99936.45
2022-09-29T20:46:41.611Z,99942.39
2022-09-29T20:51:45.300Z,99947.61
2022-09-29T20:56:48.428Z,99942.46
2022-09-29T21:01:52.504Z,99949.80
2022-09-29T21:06:55.580Z,99950.30
2022-09-29T21:11:58.396Z,99949.70
2022-09-29T21:17:01.670Z,99953.15
2022-09-29T21:22:04.502Z,99957.31
2022-09-29T21:27:07.797Z,99952.73
2022-09-29T21:32:10.531Z,99960.60
2022-09-29T21:37:13.348Z,99975.67
2022-09-29T21:42:16.159Z,99982.77
2022-09-29T21:47:38.797Z,99984.08
2022-09-29T21:52:42.594Z,99994.88
2022-09-29T21:57:45.441Z,100000.98
2022-09-29T22:02:49.113Z,100001.42
2022-09-29T22:07:51.923Z,100011.11
2022-09-29T22:12:54.687Z,100016.71
2022-09-29T22:17:57.391Z,100015.83
2022-09-29T22:23:00.131Z,100024.20
2022-09-29T22:28:02.856Z,100034.45
2022-09-29T22:33:05.755Z,100043.06
2022-09-29T22:38:09.229Z,100052.02
2022-09-29T22:43:12.628Z,100059.36
2022-09-29T22:48:16.743Z,100057.38
2022-09-29T22:53:19.466Z,100066.42
2022-09-29T22:58:25.365Z,100068.64
2022-09-29T23:03:28.047Z,100071.17
2022-09-29T23:08:32.705Z,100074.48
2022-09-29T23:13:37.105Z,100077.06
2022-09-29T23:18:45.189Z,100071.23
2022-09-29T23:23:52.662Z,100082.92
2022-09-29T23:28:55.798Z,100082.92
2022-09-29T23:33:59.506Z,100076.02
2022-09-29T23:39:13.617Z,100074.52
2022-09-29T23:44:19.201Z,100067.55
2022-09-29T23:49:27.585Z,100060.08
2022-09-29T23:54:30.443Z,100072.52
2022-09-29T23:59:33.272Z,100083.80
